createdAt,value
2022-11-02T00:00:27.619Z,0
2022-11-02T00:01:27.906Z,0
2022-11-02T00:02:29.121Z,0
2022-11-02T00:03:28.979Z,0
2022-11-02T00:04:30.188Z,0
2022-11-02T00:05:30.410Z,0
2022-11-02T00:06:30.103Z,0
2022-11-02T00:07:30.847Z,0
2022-11-02T00:08:32.343Z,0
2022-11-02T00:09:32.256Z,0
2022-11-02T00:10:33.199Z,0
2022-11-02T00:11:34.401Z,0
2022-11-02T00:12:34.038Z,0
2022-11-02T00:13:34.949Z,0
2022-11-02T00:14:35.572Z,0
2022-11-02T00:15:36.453Z,0
2022-11-02T00:16:37.955Z,0
2022-11-02T00:17:38.663Z,0
2022-11-02T00:18:39.886Z,0
2022-11-02T00:19:40.374Z,0
2022-11-02T00:20:40.598Z,0
2022-11-02T00:21:40.222Z,0
2022-11-02T00:22:41.723Z,0
2022-11-02T00:23:41.383Z,0
2022-11-02T00:24:42.339Z,0
2022-11-02T00:25:43.534Z,0
2022-11-02T00:26:43.719Z,0
2022-11-02T00:27:44.747Z,0
2022-11-02T00:28:44.629Z,0
2022-11-02T00:29:50.403Z,0
2022-11-02T00:30:46.619Z,0
2022-11-02T00:31:47.108Z,0
2022-11-02T00:32:47.307Z,0
2022-11-02T00:33:47.943Z,0
2022-11-02T00:34:48.855Z,0
2022-11-02T00:35:50.099Z,0
2022-11-02T00:36:54.480Z,0
2022-11-02T00:37:50.873Z,0
2022-11-02T00:38:52.056Z,0
2022-11-02T00:39:51.650Z,0
2022-11-02T00:40:52.839Z,0
2022-11-02T00:41:52.754Z,0
2022-11-02T00:42:53.367Z,0
2022-11-02T00:43:54.553Z,0
2022-11-02T00:44:55.462Z,0
2022-11-02T00:45:55.397Z,0
2022-11-02T00:46:56.903Z,0
2022-11-02T00:47:57.180Z,0
2022-11-02T00:48:57.685Z,0
2022-11-02T00:49:57.590Z,0
2022-11-02T00:50:58.830Z,0
2022-11-02T00:51:58.936Z,0
2022-11-02T00:53:00.439Z,0
2022-11-02T00:54:00.378Z,0
2022-11-02T00:55:00.860Z,0
2022-11-02T00:56:01.349Z,0
2022-11-02T00:58:01.632Z,0
2022-11-02T00:59:02.701Z,0
2022-11-02T01:00:03.593Z,0
2022-11-02T01:01:04.311Z,0
2022-11-02T01:02:06.461Z,0
2022-11-02T01:03:05.389Z,0
2022-11-02T01:04:06.310Z,0
2022-11-02T01:05:07.248Z,0
2022-11-02T01:06:07.461Z,0
2022-11-02T01:07:07.166Z,0
2022-11-02T01:08:08.993Z,0
2022-11-02T01:09:08.601Z,0
2022-11-02T01:10:09.532Z,0
2022-11-02T01:11:10.152Z,0
2022-11-02T01:12:10.195Z,0
2022-11-02T01:13:11.107Z,0
2022-11-02T01:14:12.021Z,0
2022-11-02T01:15:13.511Z,0
2022-11-02T01:16:13.721Z,0
2022-11-02T01:17:13.939Z,0
2022-11-02T01:18:15.142Z,0
2022-11-02T01:19:14.063Z,0
2022-11-02T01:20:15.285Z,0
2022-11-02T01:21:16.271Z,0
2022-11-02T01:22:16.750Z,0
2022-11-02T01:23:16.976Z,0
2022-11-02T01:24:17.162Z,0
2022-11-02T01:25:17.344Z,0
2022-11-02T01:26:17.992Z,0
2022-11-02T01:27:19.181Z,0
2022-11-02T01:28:19.570Z,0
2022-11-02T01:29:19.479Z,0
2022-11-02T01:30:20.111Z,0
2022-11-02T01:31:21.024Z,0
2022-11-02T01:32:21.220Z,0
2022-11-02T01:33:21.547Z,0
2022-11-02T01:34:22.173Z,0
2022-11-02T01:35:23.656Z,0
2022-11-02T01:36:24.075Z,0
2022-11-02T01:37:24.641Z,0
2022-11-02T01:38:25.238Z,0
2022-11-02T01:39:25.424Z,0
2022-11-02T01:40:26.347Z,0
2022-11-02T01:41:26.626Z,0
2022-11-02T01:42:27.544Z,0
2022-11-02T01:43:27.737Z,0
2022-11-02T01:44:28.221Z,0
2022-11-02T01:45:28.130Z,0
2022-11-02T01:46:28.334Z,0
2022-11-02T01:47:28.978Z,0
2022-11-02T01:48:29.989Z,0
2022-11-02T01:49:30.478Z,0
2022-11-02T01:50:30.369Z,0
2022-11-02T01:51:31.607Z,0
2022-11-02T01:52:31.787Z,0
2022-11-02T01:53:32.414Z,0
2022-11-02T01:54:33.024Z,0
2022-11-02T01:55:33.631Z,0
2022-11-02T01:56:34.365Z,0
2022-11-02T01:57:35.255Z,0
2022-11-02T01:58:36.410Z,0
2022-11-02T01:59:36.596Z,0
2022-11-02T02:00:36.534Z,0
2022-11-02T02:01:37.378Z,0
2022-11-02T02:02:39.329Z,0
2022-11-02T02:03:38.406Z,0
2022-11-02T02:04:39.620Z,0
2022-11-02T02:05:40.549Z,0
2022-11-02T02:06:41.073Z,0
2022-11-02T02:07:40.960Z,0
2022-11-02T02:08:42.265Z,0
2022-11-02T02:09:44.142Z,0
2022-11-02T02:10:43.274Z,0
2022-11-02T02:11:44.185Z,0
2022-11-02T02:12:44.666Z,0
2022-11-02T02:13:44.310Z,0
2022-11-02T02:14:45.519Z,0
2022-11-02T02:15:46.426Z,0
2022-11-02T02:16:50.906Z,0
2022-11-02T02:17:47.400Z,0
2022-11-02T02:18:47.656Z,0
2022-11-02T02:19:48.585Z,0
2022-11-02T02:20:48.501Z,0
2022-11-02T02:21:49.745Z,0
2022-11-02T02:22:50.225Z,0
2022-11-02T02:23:50.432Z,0
2022-11-02T02:24:50.030Z,0
2022-11-02T02:25:50.943Z,0
2022-11-02T02:26:51.858Z,0
2022-11-02T02:27:53.060Z,0
2022-11-02T02:28:53.365Z,0
2022-11-02T02:29:54.275Z,0
2022-11-02T02:30:54.183Z,0
2022-11-02T02:31:55.667Z,0
2022-11-02T02:32:55.306Z,0
2022-11-02T02:33:56.208Z,0
2022-11-02T02:34:57.124Z,0
2022-11-02T02:35:58.606Z,0
2022-11-02T02:36:58.826Z,0
2022-11-02T02:38:00.028Z,0
2022-11-02T02:39:00.719Z,0
2022-11-02T02:40:01.338Z,0
2022-11-02T02:41:01.919Z,0
2022-11-02T02:42:02.831Z,0
2022-11-02T02:43:02.870Z,0
2022-11-02T02:44:03.762Z,0
2022-11-02T02:45:04.943Z,0
2022-11-02T02:46:05.133Z,0
2022-11-02T02:47:08.518Z,0
2022-11-02T02:48:06.112Z,0
2022-11-02T02:49:05.875Z,0
2022-11-02T02:50:05.520Z,0
2022-11-02T02:51:06.712Z,0
2022-11-02T02:52:07.235Z,0
2022-11-02T02:53:07.410Z,0
2022-11-02T02:54:07.766Z,0
2022-11-02T02:55:08.677Z,0
2022-11-02T02:56:09.161Z,0
2022-11-02T02:57:09.083Z,0
2022-11-02T02:58:11.089Z,0
2022-11-02T02:59:11.355Z,0
2022-11-02T03:00:12.563Z,0
2022-11-02T03:01:13.199Z,0
2022-11-02T03:02:14.664Z,0
2022-11-02T03:03:13.918Z,0
2022-11-02T03:04:14.828Z,0
2022-11-02T03:05:15.058Z,0
2022-11-02T03:06:14.968Z,0
2022-11-02T03:07:16.195Z,0
2022-11-02T03:08:17.441Z,0
2022-11-02T03:09:17.044Z,0
2022-11-02T03:10:17.243Z,0
2022-11-02T03:11:18.188Z,0
2022-11-02T03:12:18.368Z,0
2022-11-02T03:13:19.484Z,0
2022-11-02T03:14:19.092Z,0
2022-11-02T03:15:19.724Z,0
2022-11-02T03:16:20.634Z,0
2022-11-02T03:17:21.830Z,0
2022-11-02T03:18:23.164Z,0
2022-11-02T03:19:23.152Z,0
2022-11-02T03:20:24.363Z,0
2022-11-02T03:21:24.276Z,0
2022-11-02T03:22:25.201Z,0
2022-11-02T03:23:26.375Z,0
2022-11-02T03:24:27.593Z,0
2022-11-02T03:25:27.505Z,0
2022-11-02T03:26:28.416Z,0
2022-11-02T03:27:29.899Z,0
2022-11-02T03:28:30.112Z,0
2022-11-02T03:29:29.851Z,0
2022-11-02T03:30:31.039Z,0
2022-11-02T03:31:31.544Z,0
2022-11-02T03:32:31.145Z,0
2022-11-02T03:33:32.341Z,0
2022-11-02T03:34:32.227Z,0
2022-11-02T03:35:33.732Z,0
2022-11-02T03:36:33.942Z,0
2022-11-02T03:37:34.175Z,0
2022-11-02T03:38:34.375Z,0
2022-11-02T03:39:35.095Z,0
2022-11-02T03:40:36.031Z,0
2022-11-02T03:41:36.228Z,0
2022-11-02T03:42:36.831Z,0
2022-11-02T03:43:38.320Z,0
2022-11-02T03:44:38.237Z,0
2022-11-02T03:45:38.148Z,0
2022-11-02T03:46:38.756Z,0
2022-11-02T03:47:39.093Z,0
2022-11-02T03:48:40.591Z,0
2022-11-02T03:49:40.879Z,0
2022-11-02T03:50:41.831Z,0
2022-11-02T03:51:42.451Z,0
2022-11-02T03:52:43.664Z,0
2022-11-02T03:53:43.893Z,0
2022-11-02T03:54:44.542Z,0
2022-11-02T03:55:45.425Z,0
2022-11-02T03:56:46.340Z,0
2022-11-02T03:57:46.230Z,0
2022-11-02T03:58:46.849Z,0
2022-11-02T03:59:47.820Z,0
2022-11-02T04:00:49.031Z,0
2022-11-02T04:01:49.385Z,0
2022-11-02T04:02:50.308Z,0
2022-11-02T04:03:51.316Z,0
2022-11-02T04:04:51.222Z,0
2022-11-02T04:05:52.158Z,0
2022-11-02T04:06:53.087Z,0
2022-11-02T04:07:56.772Z,0
2022-11-02T04:08:54.137Z,0
2022-11-02T04:09:55.152Z,0
2022-11-02T04:10:55.340Z,0
2022-11-02T04:11:55.375Z,0
2022-11-02T04:12:56.704Z,0
2022-11-02T04:13:57.895Z,0
2022-11-02T04:14:58.119Z,0
2022-11-02T04:15:57.741Z,0
2022-11-02T04:16:58.370Z,0
2022-11-02T04:17:59.261Z,0
2022-11-02T04:19:00.186Z,0
2022-11-02T04:20:06.057Z,0
2022-11-02T04:21:02.552Z,0
2022-11-02T04:22:02.453Z,0
2022-11-02T04:23:03.981Z,0
2022-11-02T04:24:03.895Z,0
2022-11-02T04:25:05.393Z,0
2022-11-02T04:26:05.312Z,0
2022-11-02T04:27:06.248Z,0
2022-11-02T04:28:06.940Z,0
2022-11-02T04:29:07.277Z,0
2022-11-02T04:30:07.851Z,0
2022-11-02T04:31:08.054Z,0
2022-11-02T04:32:08.236Z,0
2022-11-02T04:33:08.422Z,0
2022-11-02T04:34:08.626Z,0
2022-11-02T04:35:09.259Z,0
2022-11-02T04:36:10.179Z,0
2022-11-02T04:37:11.090Z,0
2022-11-02T04:38:13.238Z,0
2022-11-02T04:39:12.719Z,0
2022-11-02T04:40:12.576Z,0
2022-11-02T04:41:13.467Z,0
2022-11-02T04:42:13.793Z,0
2022-11-02T04:43:15.003Z,0
2022-11-02T04:44:15.940Z,0
2022-11-02T04:45:15.845Z,0
2022-11-02T04:46:16.761Z,0
2022-11-02T04:47:16.999Z,0
2022-11-02T04:48:18.461Z,0
2022-11-02T04:49:18.362Z,0
2022-11-02T04:50:19.076Z,0
2022-11-02T04:51:20.283Z,0
2022-11-02T04:52:20.630Z,0
2022-11-02T04:53:21.281Z,0
2022-11-02T04:54:22.163Z,0
2022-11-02T04:55:23.379Z,0
2022-11-02T04:56:23.266Z,0
2022-11-02T04:57:24.763Z,0
2022-11-02T04:58:24.436Z,0
2022-11-02T04:59:25.620Z,0
2022-11-02T05:00:25.732Z,0
2022-11-02T05:01:27.147Z,0
2022-11-02T05:02:28.118Z,0
2022-11-02T05:03:29.327Z,0
2022-11-02T05:04:28.525Z,0
2022-11-02T05:05:29.176Z,0
2022-11-02T05:06:30.098Z,0
2022-11-02T05:07:31.005Z,0
2022-11-02T05:08:31.655Z,0
2022-11-02T05:09:32.952Z,0
2022-11-02T05:10:32.707Z,0
2022-11-02T05:11:34.247Z,0
2022-11-02T05:12:40.453Z,0
2022-11-02T05:13:34.360Z,0
2022-11-02T05:14:35.003Z,0
2022-11-02T05:15:36.190Z,0
2022-11-02T05:16:36.401Z,0
2022-11-02T05:17:36.932Z,0
2022-11-02T05:18:36.269Z,0
2022-11-02T05:19:37.184Z,0
2022-11-02T05:20:37.889Z,0
2022-11-02T05:21:38.543Z,0
2022-11-02T05:22:39.482Z,0
2022-11-02T05:23:40.434Z,0
2022-11-02T05:24:40.612Z,0
2022-11-02T05:25:40.821Z,0
2022-11-02T05:26:41.153Z,0
2022-11-02T05:27:42.340Z,0
2022-11-02T05:28:42.973Z,0
2022-11-02T05:29:43.562Z,0
2022-11-02T05:30:44.883Z,0
2022-11-02T05:31:44.323Z,0
2022-11-02T05:32:44.374Z,0
2022-11-02T05:33:47.381Z,0
2022-11-02T05:34:46.576Z,0
2022-11-02T05:35:46.488Z,0
2022-11-02T05:36:47.411Z,0
2022-11-02T05:37:47.301Z,0
2022-11-02T05:38:48.017Z,0
2022-11-02T05:39:52.963Z,0
2022-11-02T05:40:49.113Z,0
2022-11-02T05:41:50.303Z,0
2022-11-02T05:42:50.513Z,0
2022-11-02T05:43:50.800Z,0
2022-11-02T05:44:51.438Z,0
2022-11-02T05:45:52.332Z,0
2022-11-02T05:46:53.105Z,0
2022-11-02T05:47:54.314Z,0
2022-11-02T05:48:54.825Z,0
2022-11-02T05:49:54.741Z,0
2022-11-02T05:50:56.329Z,0
2022-11-02T05:51:56.266Z,0
2022-11-02T05:52:56.450Z,0
2022-11-02T05:53:56.086Z,0
2022-11-02T05:54:56.685Z,0
2022-11-02T05:55:57.910Z,0
2022-11-02T05:56:58.093Z,0
2022-11-02T05:57:57.988Z,0
2022-11-02T05:58:59.082Z,0
2022-11-02T06:00:04.577Z,0
2022-11-02T06:01:01.596Z,0
2022-11-02T06:02:01.962Z,0
2022-11-02T06:03:02.485Z,0
2022-11-02T06:04:09.076Z,0
2022-11-02T06:05:03.546Z,0
2022-11-02T06:06:03.573Z,0
2022-11-02T06:07:04.794Z,0
2022-11-02T06:08:05.709Z,0
2022-11-02T06:09:11.860Z,0
2022-11-02T06:10:06.140Z,0
2022-11-02T06:11:06.732Z,5.63
2022-11-02T06:12:06.643Z,5.63
2022-11-02T06:13:08.240Z,5.63
2022-11-02T06:14:08.225Z,5.63
2022-11-02T06:15:07.844Z,5.63
2022-11-02T06:16:09.338Z,5.63
2022-11-02T06:17:09.273Z,5.63
2022-11-02T06:18:09.909Z,5.63
2022-11-02T06:19:11.421Z,5.63
2022-11-02T06:20:11.402Z,5.63
2022-11-02T06:21:12.695Z,5.63
2022-11-02T06:22:12.896Z,5.63
2022-11-02T06:23:14.470Z,11.25
2022-11-02T06:24:13.387Z,11.25
2022-11-02T06:25:14.611Z,11.25
2022-11-02T06:26:15.101Z,11.25
2022-11-02T06:27:14.729Z,11.25
2022-11-02T06:28:16.219Z,11.25
2022-11-02T06:29:16.420Z,11.25
2022-11-02T06:30:16.401Z,11.25
2022-11-02T06:31:17.690Z,11.25
2022-11-02T06:32:17.606Z,16.88
2022-11-02T06:33:24.662Z,16.88
2022-11-02T06:34:19.876Z,16.88
2022-11-02T06:35:21.098Z,16.88
2022-11-02T06:36:21.019Z,16.88
2022-11-02T06:37:20.944Z,22.5
2022-11-02T06:38:21.557Z,22.5
2022-11-02T06:39:22.584Z,22.5
2022-11-02T06:40:26.571Z,22.5
2022-11-02T06:41:23.803Z,22.5
2022-11-02T06:42:24.733Z,22.5
2022-11-02T06:43:34.511Z,28.13
2022-11-02T06:44:26.427Z,28.13
2022-11-02T06:45:27.080Z,28.13
2022-11-02T06:46:27.680Z,28.13
2022-11-02T06:47:28.593Z,33.75
2022-11-02T06:48:35.419Z,33.75
2022-11-02T06:49:30.650Z,33.75
2022-11-02T06:50:30.569Z,33.75
2022-11-02T06:51:31.631Z,39.38
2022-11-02T06:52:32.119Z,39.38
2022-11-02T06:53:32.036Z,39.38
2022-11-02T06:54:32.243Z,45
2022-11-02T06:55:32.171Z,50.63
2022-11-02T06:56:33.389Z,61.88
2022-11-02T06:57:33.581Z,67.5
2022-11-02T06:58:34.071Z,67.5
2022-11-02T06:59:33.690Z,73.13
2022-11-02T07:00:39.849Z,78.75
2022-11-02T07:01:36.827Z,90
2022-11-02T07:02:36.352Z,78.75
2022-11-02T07:03:36.034Z,73.13
2022-11-02T07:04:36.944Z,73.13
2022-11-02T07:05:38.150Z,73.13
2022-11-02T07:06:38.043Z,90
2022-11-02T07:07:38.983Z,208.13
2022-11-02T07:08:38.892Z,236.25
2022-11-02T07:09:39.817Z,101.25
2022-11-02T07:10:40.575Z,180
2022-11-02T07:11:40.597Z,371.25
2022-11-02T07:12:42.090Z,371.25
2022-11-02T07:13:42.061Z,405
2022-11-02T07:14:42.957Z,916.88
2022-11-02T07:15:44.153Z,618.75
2022-11-02T07:16:44.777Z,393.75
2022-11-02T07:17:48.598Z,326.25
2022-11-02T07:18:46.508Z,686.25
2022-11-02T07:19:46.849Z,787.5
2022-11-02T07:20:48.069Z,641.25
2022-11-02T07:21:52.778Z,309.38
2022-11-02T07:22:48.413Z,174.38
2022-11-02T07:23:49.909Z,202.5
2022-11-02T07:24:50.207Z,371.25
2022-11-02T07:25:49.856Z,382.5
2022-11-02T07:26:51.062Z,320.63
2022-11-02T07:27:50.723Z,292.5
2022-11-02T07:28:55.059Z,168.75
2022-11-02T07:29:52.168Z,168.75
2022-11-02T07:30:52.100Z,264.38
2022-11-02T07:31:53.104Z,286.88
2022-11-02T07:32:53.424Z,191.25
2022-11-02T07:33:54.421Z,135
2022-11-02T07:34:55.918Z,101.25
2022-11-02T07:35:56.171Z,95.63
2022-11-02T07:36:55.803Z,90
2022-11-02T07:37:56.735Z,101.25
2022-11-02T07:38:57.399Z,123.75
2022-11-02T07:39:58.612Z,129.38
2022-11-02T07:40:58.834Z,106.88
2022-11-02T07:43:00.889Z,112.5
2022-11-02T07:44:00.827Z,140.63
2022-11-02T07:45:01.441Z,101.25
2022-11-02T07:46:02.632Z,101.25
2022-11-02T07:47:02.864Z,112.5
2022-11-02T07:48:02.800Z,118.13
2022-11-02T07:49:03.719Z,106.88
2022-11-02T07:50:03.986Z,95.63
2022-11-02T07:51:04.650Z,90
2022-11-02T07:52:04.375Z,84.38
2022-11-02T07:53:05.637Z,90
2022-11-02T07:54:06.032Z,84.38
2022-11-02T07:55:06.231Z,73.13
2022-11-02T07:56:06.864Z,73.13
2022-11-02T07:57:07.065Z,78.75
2022-11-02T07:58:07.691Z,56.25
2022-11-02T07:59:09.175Z,50.63
2022-11-02T08:00:09.490Z,45
2022-11-02T08:01:14.042Z,45
2022-11-02T08:02:09.630Z,45
2022-11-02T08:03:11.259Z,50.63
2022-11-02T08:04:10.969Z,50.63
2022-11-02T08:05:10.713Z,50.63
2022-11-02T08:06:11.960Z,45
2022-11-02T08:07:11.309Z,50.63
2022-11-02T08:08:13.383Z,56.25
2022-11-02T08:09:13.307Z,56.25
2022-11-02T08:10:13.818Z,50.63
2022-11-02T08:11:13.896Z,50.63
2022-11-02T08:12:14.215Z,50.63
2022-11-02T08:13:14.834Z,56.25
2022-11-02T08:14:15.451Z,56.25
2022-11-02T08:15:22.592Z,67.5
2022-11-02T08:16:17.532Z,67.5
2022-11-02T08:17:18.158Z,73.13
2022-11-02T08:18:20.516Z,73.13
2022-11-02T08:19:20.025Z,73.13
2022-11-02T08:20:19.940Z,73.13
2022-11-02T08:21:19.881Z,73.13
2022-11-02T08:22:20.867Z,73.13
2022-11-02T08:23:21.084Z,84.38
2022-11-02T08:24:21.287Z,84.38
2022-11-02T08:25:21.465Z,84.38
2022-11-02T08:26:22.713Z,84.38
2022-11-02T08:27:22.916Z,84.38
2022-11-02T08:28:23.529Z,84.38
2022-11-02T08:29:23.436Z,84.38
2022-11-02T08:30:24.412Z,90
2022-11-02T08:31:25.622Z,90
2022-11-02T08:32:26.641Z,95.63
2022-11-02T08:33:27.053Z,95.63
2022-11-02T08:34:26.747Z,101.25
2022-11-02T08:35:27.982Z,106.88
2022-11-02T08:36:28.479Z,106.88
2022-11-02T08:37:28.443Z,106.88
2022-11-02T08:38:28.357Z,106.88
2022-11-02T08:39:34.336Z,106.88
2022-11-02T08:40:29.322Z,106.88
2022-11-02T08:41:29.968Z,106.88
2022-11-02T08:42:31.000Z,106.88
2022-11-02T08:43:31.495Z,106.88
2022-11-02T08:44:31.410Z,106.88
2022-11-02T08:45:43.000Z,106.88
2022-11-02T08:46:34.035Z,106.88
2022-11-02T08:47:32.649Z,101.25
2022-11-02T08:48:33.285Z,101.25
2022-11-02T08:49:34.177Z,106.88
2022-11-02T08:50:35.863Z,101.25
2022-11-02T08:51:36.311Z,106.88
2022-11-02T08:52:40.333Z,112.5
2022-11-02T08:53:37.057Z,112.5
2022-11-02T08:54:37.258Z,112.5
2022-11-02T08:55:37.480Z,112.5
2022-11-02T08:56:37.704Z,112.5
2022-11-02T08:57:38.245Z,112.5
2022-11-02T08:58:37.914Z,106.88
2022-11-02T08:59:39.105Z,95.63
2022-11-02T09:00:39.303Z,84.38
2022-11-02T09:01:40.553Z,73.13
2022-11-02T09:02:41.242Z,61.88
2022-11-02T09:03:44.011Z,50.63
2022-11-02T09:04:41.630Z,39.38
2022-11-02T09:05:42.275Z,39.38
2022-11-02T09:06:43.501Z,33.75
2022-11-02T09:07:44.024Z,28.13
2022-11-02T09:08:45.053Z,28.13
2022-11-02T09:09:44.823Z,28.13
2022-11-02T09:10:45.807Z,28.13
2022-11-02T09:11:46.137Z,33.75
2022-11-02T09:12:46.183Z,28.13
2022-11-02T09:13:47.301Z,28.13
2022-11-02T09:14:47.677Z,28.13
2022-11-02T09:15:48.035Z,28.13
2022-11-02T09:16:53.009Z,28.13
2022-11-02T09:17:49.948Z,22.5
2022-11-02T09:18:50.868Z,28.13
2022-11-02T09:19:51.111Z,28.13
2022-11-02T09:20:51.797Z,28.13
2022-11-02T09:21:53.312Z,28.13
2022-11-02T09:22:53.596Z,28.13
2022-11-02T09:23:53.522Z,33.75
2022-11-02T09:24:55.017Z,33.75
2022-11-02T09:25:55.304Z,33.75
2022-11-02T09:26:55.825Z,33.75
2022-11-02T09:28:01.057Z,33.75
2022-11-02T09:28:55.671Z,33.75
2022-11-02T09:29:56.877Z,33.75
2022-11-02T09:30:57.150Z,33.75
2022-11-02T09:31:57.347Z,33.75
2022-11-02T09:32:58.031Z,33.75
2022-11-02T09:33:58.237Z,33.75
2022-11-02T09:34:57.857Z,33.75
2022-11-02T09:35:58.210Z,33.75
2022-11-02T09:36:59.417Z,33.75
2022-11-02T09:38:03.857Z,33.75
2022-11-02T09:39:00.066Z,33.75
2022-11-02T09:40:01.282Z,33.75
2022-11-02T09:41:01.536Z,33.75
2022-11-02T09:42:01.621Z,33.75
2022-11-02T09:43:04.058Z,33.75
2022-11-02T09:44:03.741Z,33.75
2022-11-02T09:45:03.659Z,33.75
2022-11-02T09:46:03.859Z,33.75
2022-11-02T09:48:36.352Z,39.38
2022-11-02T09:48:53.594Z,39.38
2022-11-02T09:49:53.198Z,39.38
2022-11-02T09:50:55.286Z,39.38
2022-11-02T09:51:54.690Z,45
2022-11-02T09:52:55.616Z,45
2022-11-02T09:53:55.935Z,45
2022-11-02T09:54:56.881Z,50.63
2022-11-02T09:55:57.096Z,56.25
2022-11-02T09:56:57.009Z,56.25
2022-11-02T09:57:58.618Z,56.25
2022-11-02T09:58:58.843Z,50.63
2022-11-02T09:59:59.181Z,50.63
2022-11-02T10:01:03.461Z,56.25
2022-11-02T10:02:00.904Z,56.25
2022-11-02T10:03:00.206Z,61.88
2022-11-02T10:04:00.902Z,61.88
2022-11-02T10:05:01.259Z,61.88
2022-11-02T10:06:01.889Z,56.25
2022-11-02T10:07:03.101Z,50.63
2022-11-02T10:08:03.839Z,45
2022-11-02T10:09:04.288Z,39.38
2022-11-02T10:10:04.518Z,39.38
2022-11-02T10:11:09.479Z,39.38
2022-11-02T10:12:05.128Z,39.38
2022-11-02T10:13:06.557Z,39.38
2022-11-02T10:14:10.033Z,39.38
2022-11-02T10:15:07.254Z,39.38
2022-11-02T10:16:07.474Z,39.38
2022-11-02T10:17:07.376Z,39.38
2022-11-02T10:18:08.592Z,39.38
2022-11-02T10:19:08.238Z,45
2022-11-02T10:20:09.151Z,50.63
2022-11-02T10:21:09.105Z,50.63
2022-11-02T10:22:10.595Z,56.25
2022-11-02T10:23:11.273Z,56.25
2022-11-02T10:24:11.272Z,56.25
2022-11-02T10:25:11.787Z,56.25
2022-11-02T10:26:12.277Z,61.88
2022-11-02T10:27:18.480Z,61.88
2022-11-02T10:28:12.485Z,61.88
2022-11-02T10:29:13.097Z,67.5
2022-11-02T10:30:13.013Z,78.75
2022-11-02T10:31:20.051Z,67.5
2022-11-02T10:32:14.695Z,67.5
2022-11-02T10:33:15.774Z,61.88
2022-11-02T10:34:16.140Z,56.25
2022-11-02T10:36:24.631Z,56.25
2022-11-02T10:36:41.840Z,56.25
2022-11-02T10:37:42.328Z,56.25
2022-11-02T10:38:42.537Z,56.25
2022-11-02T10:39:42.760Z,61.88
2022-11-02T10:40:43.269Z,61.88
2022-11-02T10:41:43.460Z,61.88
2022-11-02T10:42:43.376Z,61.88
2022-11-02T10:43:48.276Z,56.25
2022-11-02T10:44:44.671Z,56.25
2022-11-02T10:45:45.577Z,56.25
2022-11-02T10:46:47.187Z,56.25
2022-11-02T10:47:47.113Z,56.25
2022-11-02T10:48:47.730Z,56.25
2022-11-02T10:49:48.918Z,50.63
2022-11-02T10:50:48.814Z,50.63
2022-11-02T10:51:49.726Z,45
2022-11-02T10:52:51.207Z,45
2022-11-02T10:53:59.490Z,39.38
2022-11-02T10:54:51.824Z,39.38
2022-11-02T10:55:53.912Z,33.75
2022-11-02T10:56:54.105Z,33.75
2022-11-02T10:57:54.752Z,33.75
2022-11-02T10:58:55.695Z,39.38
2022-11-02T11:00:02.254Z,39.38
2022-11-02T11:00:57.734Z,39.38
2022-11-02T11:01:58.621Z,39.38
2022-11-02T11:02:59.164Z,33.75
2022-11-02T11:03:59.653Z,33.75
2022-11-02T11:04:59.371Z,33.75
2022-11-02T11:05:59.995Z,33.75
2022-11-02T11:07:01.212Z,33.75
2022-11-02T11:08:01.572Z,33.75
2022-11-02T11:09:01.917Z,33.75
2022-11-02T11:10:03.713Z,33.75
2022-11-02T11:11:03.637Z,33.75
2022-11-02T11:12:04.248Z,33.75
2022-11-02T11:13:06.300Z,33.75
2022-11-02T11:15:51.260Z,33.75
2022-11-02T11:16:44.393Z,33.75
2022-11-02T11:19:44.307Z,33.75
2022-11-02T11:20:04.350Z,33.75
2022-11-02T11:21:02.804Z,33.75
2022-11-02T11:22:03.053Z,33.75
2022-11-02T11:23:03.605Z,33.75
2022-11-02T11:24:03.469Z,33.75
2022-11-02T11:25:04.503Z,33.75
2022-11-02T11:26:04.705Z,33.75
2022-11-02T11:27:11.635Z,33.75
2022-11-02T11:28:06.185Z,33.75
2022-11-02T11:29:06.686Z,28.13
2022-11-02T11:30:06.357Z,28.13
2022-11-02T11:31:23.008Z,28.13
2022-11-02T11:32:07.622Z,33.75
2022-11-02T11:33:09.111Z,33.75
2022-11-02T11:34:09.597Z,33.75
2022-11-02T11:35:08.920Z,28.13
2022-11-02T11:36:10.847Z,28.13
2022-11-02T11:37:10.965Z,28.13
2022-11-02T11:38:12.708Z,28.13
2022-11-02T11:39:12.628Z,33.75
2022-11-02T11:40:12.546Z,33.75
2022-11-02T11:41:13.205Z,33.75
2022-11-02T11:42:14.145Z,33.75
2022-11-02T11:43:19.360Z,33.75
2022-11-02T11:44:16.319Z,33.75
2022-11-02T11:45:16.556Z,33.75
2022-11-02T11:46:22.610Z,28.13
2022-11-02T11:47:17.606Z,28.13
2022-11-02T11:48:19.576Z,33.75
2022-11-02T11:49:18.910Z,33.75
2022-11-02T11:50:39.644Z,28.13
2022-11-02T11:51:25.190Z,28.13
2022-11-02T11:52:23.578Z,33.75
2022-11-02T11:53:22.100Z,33.75
2022-11-02T11:54:22.016Z,33.75
2022-11-02T11:55:21.921Z,33.75
2022-11-02T11:56:23.374Z,33.75
2022-11-02T11:57:23.388Z,33.75
2022-11-02T11:58:24.082Z,33.75
2022-11-02T11:59:23.739Z,33.75
2022-11-02T12:00:24.648Z,33.75
2022-11-02T12:01:27.517Z,33.75
2022-11-02T12:02:27.472Z,33.75
2022-11-02T12:03:26.957Z,33.75
2022-11-02T12:04:26.641Z,33.75
2022-11-02T12:05:27.563Z,33.75
2022-11-02T12:06:27.777Z,33.75
2022-11-02T12:07:28.986Z,28.13
2022-11-02T12:08:29.560Z,33.75
2022-11-02T12:09:28.933Z,33.75
2022-11-02T12:10:29.563Z,28.13
2022-11-02T12:11:35.777Z,28.13
2022-11-02T12:12:31.282Z,28.13
2022-11-02T12:13:31.491Z,28.13
2022-11-02T12:14:31.566Z,28.13
2022-11-02T12:15:32.542Z,28.13
2022-11-02T12:16:33.466Z,28.13
2022-11-02T12:17:35.073Z,33.75
2022-11-02T12:18:35.429Z,33.75
2022-11-02T12:19:44.645Z,33.75
2022-11-02T12:20:36.301Z,33.75
2022-11-02T12:21:37.783Z,28.13
2022-11-02T12:22:37.996Z,28.13
2022-11-02T12:23:38.635Z,28.13
2022-11-02T12:24:39.856Z,28.13
2022-11-02T12:25:40.801Z,28.13
2022-11-02T12:26:40.700Z,28.13
2022-11-02T12:27:41.937Z,28.13
2022-11-02T12:28:42.365Z,28.13
2022-11-02T12:29:43.872Z,28.13
2022-11-02T12:30:43.791Z,28.13
2022-11-02T12:31:44.278Z,28.13
2022-11-02T12:32:44.256Z,28.13
2022-11-02T12:33:44.436Z,28.13
2022-11-02T12:34:49.321Z,28.13
2022-11-02T12:35:47.567Z,28.13
2022-11-02T12:37:41.073Z,28.13
2022-11-02T12:37:58.518Z,28.13
2022-11-02T12:38:59.895Z,28.13
2022-11-02T12:40:00.796Z,28.13
2022-11-02T12:41:01.750Z,28.13
2022-11-02T12:42:02.230Z,28.13
2022-11-02T12:43:02.349Z,28.13
2022-11-02T12:44:02.401Z,28.13
2022-11-02T12:45:02.910Z,28.13
2022-11-02T12:46:03.104Z,28.13
2022-11-02T12:47:05.591Z,28.13
2022-11-02T12:48:05.089Z,28.13
2022-11-02T12:49:04.987Z,28.13
2022-11-02T12:50:05.030Z,28.13
2022-11-02T12:51:05.946Z,28.13
2022-11-02T12:52:07.131Z,28.13
2022-11-02T12:53:07.496Z,28.13
2022-11-02T12:54:07.526Z,28.13
2022-11-02T12:55:07.150Z,28.13
2022-11-02T12:56:08.384Z,22.5
2022-11-02T12:57:08.596Z,22.5
2022-11-02T12:58:10.155Z,22.5
2022-11-02T12:59:10.156Z,22.5
2022-11-02T13:00:11.451Z,22.5
2022-11-02T13:01:18.568Z,22.5
2022-11-02T13:02:12.030Z,22.5
2022-11-02T13:03:12.735Z,22.5
2022-11-02T13:04:13.260Z,22.5
2022-11-02T13:05:13.484Z,22.5
2022-11-02T13:06:12.825Z,16.88
2022-11-02T13:07:14.319Z,16.88
2022-11-02T13:08:15.370Z,16.88
2022-11-02T13:09:14.795Z,16.88
2022-11-02T13:10:16.361Z,16.88
2022-11-02T13:11:16.584Z,16.88
2022-11-02T13:12:16.203Z,16.88
2022-11-02T13:13:18.723Z,16.88
2022-11-02T13:14:21.027Z,22.5
2022-11-02T13:15:23.493Z,22.5
2022-11-02T13:16:18.705Z,22.5
2022-11-02T13:17:18.348Z,22.5
2022-11-02T13:18:20.603Z,22.5
2022-11-02T13:19:19.908Z,22.5
2022-11-02T13:20:19.815Z,22.5
2022-11-02T13:21:20.735Z,22.5
2022-11-02T13:22:20.945Z,22.5
2022-11-02T13:23:22.470Z,22.5
2022-11-02T13:24:23.886Z,22.5
2022-11-02T13:25:23.083Z,22.5
2022-11-02T13:26:25.007Z,22.5
2022-11-02T13:27:50.824Z,22.5
2022-11-02T13:28:26.273Z,22.5
2022-11-02T13:29:26.559Z,22.5
2022-11-02T13:30:26.784Z,22.5
2022-11-02T13:31:29.967Z,22.5
2022-11-02T13:32:32.549Z,22.5
2022-11-02T13:33:27.927Z,22.5
2022-11-02T13:34:28.428Z,22.5
2022-11-02T13:35:28.628Z,22.5
2022-11-02T13:36:29.276Z,22.5
2022-11-02T13:37:30.774Z,22.5
2022-11-02T13:38:30.118Z,22.5
2022-11-02T13:39:30.879Z,22.5
2022-11-02T13:40:32.066Z,22.5
2022-11-02T13:41:32.018Z,22.5
2022-11-02T13:42:32.918Z,22.5
2022-11-02T13:43:34.123Z,22.5
2022-11-02T13:44:35.054Z,28.13
2022-11-02T13:45:35.362Z,28.13
2022-11-02T13:46:35.997Z,28.13
2022-11-02T13:47:36.335Z,33.75
2022-11-02T13:48:37.857Z,33.75
2022-11-02T13:49:38.857Z,33.75
2022-11-02T13:50:38.790Z,33.75
2022-11-02T13:51:39.706Z,39.38
2022-11-02T13:52:39.924Z,39.38
2022-11-02T13:53:41.143Z,39.38
2022-11-02T13:54:42.028Z,45
2022-11-02T13:55:46.686Z,45
2022-11-02T13:56:42.886Z,45